createdAt,value
2022-12-28T00:02:14.920Z,3.73
2022-12-28T00:04:44.674Z,3.40
2022-12-28T00:07:12.981Z,3.87
2022-12-28T00:09:41.285Z,3.50
2022-12-28T00:12:09.656Z,3.33
2022-12-28T00:14:37.990Z,3.70
2022-12-28T00:17:06.283Z,3.20
2022-12-28T00:19:34.663Z,3.60
2022-12-28T00:22:04.449Z,4.13
2022-12-28T00:24:32.710Z,4.30
2022-12-28T00:27:01.176Z,3.67
2022-12-28T00:29:29.502Z,3.77
2022-12-28T00:31:57.844Z,3.73
2022-12-28T00:34:26.245Z,3.50
2022-12-28T00:37:09.378Z,3.33
2022-12-28T00:39:41.801Z,4.00
2022-12-28T00:42:10.254Z,4.10
2022-12-28T00:44:38.557Z,4.90
2022-12-28T00:47:06.949Z,4.77
2022-12-28T00:49:35.239Z,5.10
2022-12-28T00:52:03.543Z,5.20
2022-12-28T00:54:31.824Z,4.47
2022-12-28T00:57:01.485Z,4.33
2022-12-28T00:59:29.776Z,4.00
2022-12-28T01:01:58.156Z,3.93
2022-12-28T01:04:26.488Z,3.80
2022-12-28T01:06:54.799Z,3.50
2022-12-28T01:09:23.090Z,3.20
2022-12-28T01:11:51.411Z,3.00
2022-12-28T01:14:21.116Z,2.90
2022-12-28T01:16:49.442Z,3.10
2022-12-28T01:19:21.712Z,2.60
2022-12-28T01:21:51.274Z,2.43
2022-12-28T01:24:19.725Z,2.63
2022-12-28T01:26:48.034Z,2.97
2022-12-28T01:29:16.294Z,2.70
2022-12-28T01:31:46.370Z,2.40
2022-12-28T01:34:14.945Z,2.90
2022-12-28T01:36:43.331Z,3.00
2022-12-28T01:39:12.228Z,2.80
2022-12-28T01:41:42.473Z,2.97
2022-12-28T01:44:44.536Z,3.00
2022-12-28T01:47:17.557Z,3.13
2022-12-28T01:49:50.996Z,3.50
2022-12-28T01:52:23.550Z,3.10
2022-12-28T01:54:55.700Z,2.97
2022-12-28T01:57:27.837Z,3.47
2022-12-28T01:59:59.642Z,2.90
2022-12-28T02:02:31.190Z,3.20
2022-12-28T02:05:01.658Z,2.90
2022-12-28T02:07:37.903Z,3.10
2022-12-28T02:10:42.371Z,3.10
2022-12-28T02:12:58.022Z,3.37
2022-12-28T02:15:26.404Z,3.40
2022-12-28T02:17:56.592Z,3.20
2022-12-28T02:20:31.157Z,3.20
2022-12-28T02:23:38.089Z,3.47
2022-12-28T02:26:51.954Z,3.23
2022-12-28T02:29:42.809Z,3.17
2022-12-28T02:32:31.030Z,3.10
2022-12-28T02:35:08.314Z,3.17
2022-12-28T02:37:41.623Z,2.73
2022-12-28T02:40:14.685Z,3.23
2022-12-28T02:42:44.401Z,2.83
2022-12-28T02:48:26.077Z,3.40
2022-12-28T02:51:07.959Z,3.57
2022-12-28T02:53:58.936Z,3.47
2022-12-28T02:56:37.814Z,3.60
2022-12-28T02:59:29.444Z,3.67
2022-12-28T03:02:20.399Z,3.50
2022-12-28T03:05:12.507Z,3.97
2022-12-28T03:08:07.084Z,3.67
2022-12-28T03:10:43.893Z,3.90
2022-12-28T03:13:30.228Z,4.03
2022-12-28T03:16:05.868Z,4.00
2022-12-28T03:18:54.774Z,4.33
2022-12-28T03:21:43.449Z,4.47
2022-12-28T03:24:32.317Z,4.10
2022-12-28T03:27:21.318Z,3.70
2022-12-28T03:30:12.699Z,3.70
2022-12-28T03:32:41.120Z,3.53
2022-12-28T03:35:10.254Z,3.30
2022-12-28T03:37:44.979Z,3.40
2022-12-28T03:40:24.572Z,3.33
2022-12-28T03:43:13.703Z,3.23
2022-12-28T03:45:50.432Z,2.80
2022-12-28T03:48:19.266Z,3.00
2022-12-28T03:50:49.313Z,3.57
2022-12-28T03:53:21.355Z,3.10
2022-12-28T03:55:49.691Z,3.10
2022-12-28T03:58:18.037Z,3.20
2022-12-28T04:00:46.338Z,3.23
2022-12-28T04:03:15.018Z,2.87
2022-12-28T04:05:43.306Z,3.30
2022-12-28T04:08:11.561Z,3.20
2022-12-28T04:10:41.297Z,2.80
2022-12-28T04:13:09.741Z,3.23
2022-12-28T04:15:38.002Z,3.03
2022-12-28T04:18:06.585Z,3.20
2022-12-28T04:20:34.804Z,3.27
2022-12-28T04:23:03.087Z,3.30
2022-12-28T04:25:31.452Z,3.33
2022-12-28T04:28:01.107Z,3.50
2022-12-28T04:30:29.488Z,3.70
2022-12-28T04:32:57.846Z,3.40
2022-12-28T04:35:26.142Z,3.77
2022-12-28T04:37:54.391Z,3.70
2022-12-28T04:40:22.640Z,3.40
2022-12-28T04:42:51.072Z,3.77
2022-12-28T04:45:22.393Z,4.17
2022-12-28T04:47:50.941Z,3.43
2022-12-28T04:50:19.922Z,3.57
2022-12-28T04:52:48.174Z,3.50
2022-12-28T04:55:32.452Z,3.50
2022-12-28T04:58:02.002Z,3.30
2022-12-28T05:00:31.765Z,3.43
2022-12-28T05:03:00.687Z,3.67
2022-12-28T05:05:29.671Z,3.10
2022-12-28T05:08:01.790Z,3.20
2022-12-28T05:10:30.377Z,3.13
2022-12-28T05:12:58.767Z,3.43
2022-12-28T05:15:27.055Z,3.37
2022-12-28T05:17:57.620Z,3.30
2022-12-28T05:20:25.899Z,3.77
2022-12-28T05:22:54.211Z,3.40
2022-12-28T05:25:22.979Z,4.13
2022-12-28T05:27:51.319Z,3.40
2022-12-28T05:30:20.002Z,3.60
2022-12-28T05:32:48.239Z,3.80
2022-12-28T05:35:18.186Z,4.00
2022-12-28T05:37:46.442Z,3.50
2022-12-28T05:40:14.925Z,3.90
2022-12-28T05:42:47.972Z,3.57
2022-12-28T05:45:19.890Z,3.80
2022-12-28T05:47:48.152Z,3.57
2022-12-28T05:50:18.182Z,3.83
2022-12-28T05:52:46.558Z,3.73
2022-12-28T05:55:14.937Z,4.10
2022-12-28T05:57:43.222Z,3.73
2022-12-28T06:00:12.558Z,3.93
2022-12-28T06:02:41.020Z,4.00
2022-12-28T06:05:10.270Z,4.33
2022-12-28T06:07:39.870Z,3.93
2022-12-28T06:10:09.334Z,3.90
2022-12-28T06:12:37.597Z,3.80
2022-12-28T06:15:06.813Z,4.17
2022-12-28T06:17:35.065Z,3.90
2022-12-28T06:20:03.537Z,3.90
2022-12-28T06:22:31.853Z,3.63
2022-12-28T06:25:01.500Z,4.10
2022-12-28T06:27:29.776Z,4.03
2022-12-28T06:29:58.072Z,4.60
2022-12-28T06:32:26.385Z,5.07
2022-12-28T06:34:54.709Z,4.93
2022-12-28T06:37:23.051Z,4.53
2022-12-28T06:39:51.395Z,4.57
2022-12-28T06:42:21.051Z,3.97
2022-12-28T06:44:49.526Z,4.70
2022-12-28T06:47:17.784Z,4.27
2022-12-28T06:49:46.079Z,4.30
2022-12-28T06:52:14.383Z,3.83
2022-12-28T06:54:42.687Z,4.20
2022-12-28T06:57:10.991Z,4.37
2022-12-28T06:59:40.838Z,4.23
2022-12-28T07:02:10.769Z,4.07
2022-12-28T07:04:39.252Z,4.13
2022-12-28T07:07:09.765Z,4.37
2022-12-28T07:09:38.074Z,5.90
2022-12-28T07:12:06.891Z,6.83
2022-12-28T07:14:35.229Z,7.30
2022-12-28T07:17:04.885Z,6.47
2022-12-28T07:19:33.150Z,5.83
2022-12-28T07:22:01.493Z,4.60
2022-12-28T07:24:29.793Z,4.90
2022-12-28T07:26:58.255Z,5.47
2022-12-28T07:29:26.702Z,4.83
2022-12-28T07:31:54.961Z,4.97
2022-12-28T07:34:24.805Z,4.97
2022-12-28T07:36:53.096Z,5.30
2022-12-28T07:39:21.381Z,5.43
2022-12-28T07:41:49.737Z,6.07
2022-12-28T07:44:17.993Z,7.20
2022-12-28T07:46:46.340Z,8.00
2022-12-28T07:49:14.586Z,7.40
2022-12-28T07:51:44.222Z,6.87
2022-12-28T07:54:12.475Z,6.47
2022-12-28T07:59:08.232Z,6.73
2022-12-28T08:01:37.941Z,8.30
2022-12-28T08:04:08.039Z,10.17
2022-12-28T08:06:37.815Z,10.57
2022-12-28T08:09:08.694Z,10.23
2022-12-28T08:11:38.684Z,10.70
2022-12-28T08:14:08.251Z,10.07
2022-12-28T08:16:38.448Z,9.33
2022-12-28T08:19:07.499Z,9.60
2022-12-28T08:21:38.043Z,10.40
2022-12-28T08:24:08.991Z,22.77
2022-12-28T08:26:39.934Z,24.33
2022-12-28T08:29:10.301Z,24.03
2022-12-28T08:31:40.724Z,24.03
2022-12-28T08:34:12.294Z,22.63
2022-12-28T08:36:40.692Z,16.13
2022-12-28T08:39:10.424Z,13.00
2022-12-28T08:41:39.016Z,14.60
2022-12-28T08:44:07.758Z,46.13
2022-12-28T08:46:37.815Z,39.50
2022-12-28T08:49:06.979Z,38.13
2022-12-28T08:51:36.870Z,27.33
2022-12-28T08:54:05.475Z,17.50
2022-12-28T08:56:36.999Z,14.00
2022-12-28T08:59:05.977Z,11.07
2022-12-28T09:01:42.472Z,9.37
2022-12-28T09:04:15.925Z,9.23
2022-12-28T09:06:44.366Z,8.80
2022-12-28T09:09:14.763Z,8.33
2022-12-28T09:11:44.815Z,8.03
2022-12-28T09:14:22.525Z,7.93
2022-12-28T09:16:51.623Z,8.13
2022-12-28T09:19:20.195Z,7.90
2022-12-28T09:21:49.445Z,8.00
2022-12-28T09:24:17.938Z,7.90
2022-12-28T09:26:47.666Z,7.60
2022-12-28T09:29:16.638Z,7.40
2022-12-28T09:31:44.981Z,7.43
2022-12-28T09:37:03.143Z,7.70
2022-12-28T09:39:31.974Z,7.17
2022-12-28T09:42:05.241Z,8.13
2022-12-28T09:44:56.097Z,7.83
2022-12-28T09:47:29.700Z,8.10
2022-12-28T09:50:06.364Z,7.97
2022-12-28T09:52:37.785Z,8.10
2022-12-28T09:55:12.590Z,7.50
2022-12-28T09:57:47.000Z,7.73
2022-12-28T10:00:20.905Z,8.30
2022-12-28T10:02:53.501Z,7.60
2022-12-28T10:05:22.915Z,7.30
2022-12-28T10:07:52.874Z,8.30
2022-12-28T10:10:23.661Z,7.80
2022-12-28T10:12:54.415Z,8.87
2022-12-28T10:15:24.465Z,9.53
2022-12-28T10:17:52.914Z,8.17
2022-12-28T10:20:23.503Z,8.33
2022-12-28T10:22:55.250Z,9.87
2022-12-28T10:25:25.609Z,10.87
2022-12-28T10:27:56.144Z,11.57
2022-12-28T10:30:27.336Z,11.73
2022-12-28T10:33:02.741Z,10.57
2022-12-28T10:35:36.957Z,10.97
2022-12-28T10:38:08.687Z,9.33
2022-12-28T10:40:40.084Z,8.97
2022-12-28T10:43:20.561Z,10.13
2022-12-28T10:45:52.732Z,11.80
2022-12-28T10:48:26.432Z,10.53
2022-12-28T10:50:57.319Z,11.47
2022-12-28T10:53:28.890Z,12.00
2022-12-28T10:56:21.616Z,11.57
2022-12-28T10:58:53.077Z,11.07
2022-12-28T11:01:27.576Z,11.10
2022-12-28T11:04:02.859Z,10.87
2022-12-28T11:06:32.344Z,10.93
2022-12-28T11:09:19.415Z,11.53
2022-12-28T11:11:49.579Z,12.20
2022-12-28T11:14:29.349Z,11.43
2022-12-28T11:16:57.891Z,11.73
2022-12-28T11:19:26.965Z,11.87
2022-12-28T11:21:55.275Z,12.00
2022-12-28T11:24:27.191Z,11.60
2022-12-28T11:26:55.610Z,10.50
2022-12-28T11:29:25.536Z,10.83
2022-12-28T11:32:02.557Z,10.13
2022-12-28T11:34:32.540Z,9.07
2022-12-28T11:37:01.287Z,9.27
2022-12-28T11:39:45.472Z,9.00
2022-12-28T11:42:39.991Z,10.33
2022-12-28T11:45:15.584Z,10.20
2022-12-28T11:47:45.860Z,10.10
2022-12-28T11:50:50.916Z,10.43
2022-12-28T11:53:24.651Z,10.00
2022-12-28T11:56:04.510Z,9.47
2022-12-28T11:59:04.818Z,9.47
2022-12-28T12:01:44.999Z,9.10
2022-12-28T12:04:42.246Z,8.73
2022-12-28T12:07:19.752Z,8.53
2022-12-28T12:09:49.950Z,8.43
2022-12-28T12:12:47.686Z,8.00
2022-12-28T12:15:20.639Z,8.20
2022-12-28T12:17:54.174Z,9.00
2022-12-28T12:20:35.521Z,8.10
2022-12-28T12:23:09.296Z,8.13
2022-12-28T12:25:41.213Z,7.83
2022-12-28T12:28:18.037Z,7.30
2022-12-28T12:30:47.372Z,7.07
2022-12-28T12:33:25.771Z,6.13
2022-12-28T12:36:03.901Z,6.38
2022-12-28T12:38:47.550Z,6.13
2022-12-28T12:41:27.149Z,5.22
2022-12-28T12:44:13.555Z,4.93
2022-12-28T12:47:05.946Z,5.43
2022-12-28T12:50:13.067Z,5.53
2022-12-28T12:52:43.896Z,4.75
2022-12-28T12:55:24.547Z,4.35
2022-12-28T12:57:59.238Z,4.53
2022-12-28T13:00:38.578Z,4.32
2022-12-28T13:03:19.988Z,4.40
2022-12-28T13:05:54.099Z,3.85
2022-12-28T13:08:26.658Z,4.13
2022-12-28T13:10:56.318Z,4.00
2022-12-28T13:13:32.013Z,3.83
2022-12-28T13:16:04.435Z,4.38
2022-12-28T13:18:48.580Z,3.92
2022-12-28T13:21:22.275Z,3.83
2022-12-28T13:23:52.197Z,3.63
2022-12-28T13:26:26.685Z,3.80
2022-12-28T13:28:59.180Z,4.00
2022-12-28T13:31:34.884Z,3.80
2022-12-28T13:34:04.908Z,3.90
2022-12-28T13:36:34.539Z,4.05
2022-12-28T13:39:15.983Z,4.15
2022-12-28T13:41:50.438Z,3.85
2022-12-28T13:44:31.835Z,4.10
2022-12-28T13:47:05.765Z,3.78
2022-12-28T13:49:37.905Z,4.13
2022-12-28T13:52:13.185Z,4.20
2022-12-28T13:54:45.532Z,4.32
2022-12-28T13:57:45.199Z,4.50
2022-12-28T14:00:05.447Z,4.28
2022-12-28T14:02:35.634Z,5.53
2022-12-28T14:05:04.790Z,5.20
2022-12-28T14:07:38.071Z,4.50
2022-12-28T14:10:07.534Z,5.20
2022-12-28T14:12:35.994Z,6.38
2022-12-28T14:15:05.520Z,8.43
2022-12-28T14:17:34.105Z,6.65
2022-12-28T14:20:02.431Z,5.13
2022-12-28T14:22:33.990Z,3.45
2022-12-28T14:25:07.831Z,2.50
2022-12-28T14:27:39.450Z,2.50
2022-12-28T14:30:22.252Z,1.80
2022-12-28T14:32:50.838Z,2.50
2022-12-28T14:35:21.749Z,5.75
2022-12-28T14:37:54.358Z,13.50
2022-12-28T14:40:33.228Z,15.20
2022-12-28T14:43:06.726Z,12.90
2022-12-28T14:48:37.741Z,6.63
2022-12-28T14:51:24.139Z,5.63
2022-12-28T14:54:16.913Z,4.30
2022-12-28T14:56:51.190Z,6.07
2022-12-28T14:59:25.498Z,3.83
2022-12-28T15:01:53.841Z,8.10
2022-12-28T15:04:35.052Z,41.70
2022-12-28T15:07:03.645Z,25.90
2022-12-28T15:09:32.095Z,16.90
2022-12-28T15:12:13.829Z,10.63
2022-12-28T15:14:42.605Z,9.60
2022-12-28T15:17:11.711Z,8.40
2022-12-28T15:19:40.070Z,6.35
2022-12-28T15:22:08.399Z,7.37
2022-12-28T15:24:36.727Z,6.17
2022-12-28T15:27:06.695Z,7.00
2022-12-28T15:32:24.635Z,4.23
2022-12-28T15:34:52.887Z,4.27
2022-12-28T15:37:21.155Z,4.03
2022-12-28T15:39:49.786Z,6.20
2022-12-28T15:42:18.269Z,12.73
2022-12-28T15:44:48.750Z,14.93
2022-12-28T15:47:18.057Z,15.90
2022-12-28T15:49:46.370Z,19.40
2022-12-28T15:52:14.803Z,20.63
2022-12-28T15:54:47.232Z,21.57
2022-12-28T15:57:16.034Z,23.70
2022-12-28T15:59:44.443Z,23.63
2022-12-28T16:02:14.593Z,21.60
2022-12-28T16:04:43.129Z,21.13
2022-12-28T16:07:11.473Z,17.20
2022-12-28T16:09:39.762Z,16.13
2022-12-28T16:12:08.348Z,14.60
2022-12-28T16:14:36.670Z,15.23
2022-12-28T16:17:05.061Z,17.17
2022-12-28T16:19:34.851Z,18.50
2022-12-28T16:22:03.301Z,17.57
2022-12-28T16:24:31.673Z,14.47
2022-12-28T16:26:59.998Z,17.50
2022-12-28T16:29:28.428Z,19.20
2022-12-28T16:31:59.238Z,19.33
2022-12-28T16:34:29.002Z,18.63
2022-12-28T16:36:59.694Z,22.57
2022-12-28T16:39:29.753Z,28.93
2022-12-28T16:41:58.518Z,27.67
2022-12-28T16:44:29.552Z,23.23
2022-12-28T16:46:59.635Z,21.90
2022-12-28T16:49:29.680Z,20.37
2022-12-28T16:52:00.036Z,19.70
2022-12-28T16:54:29.061Z,20.40
2022-12-28T16:56:57.656Z,20.87
2022-12-28T16:59:28.215Z,20.97
2022-12-28T17:01:57.978Z,21.47
2022-12-28T17:04:26.438Z,21.97
2022-12-28T17:06:55.082Z,20.20
2022-12-28T17:09:24.783Z,21.33
2022-12-28T17:11:53.051Z,20.83
2022-12-28T17:14:36.550Z,22.93
2022-12-28T17:17:06.415Z,22.30
2022-12-28T17:19:35.042Z,26.20
2022-12-28T17:22:04.139Z,24.97
2022-12-28T17:24:34.023Z,23.03
2022-12-28T17:27:08.222Z,25.13
2022-12-28T17:29:37.335Z,27.63
2022-12-28T17:32:06.160Z,23.43
2022-12-28T17:34:34.814Z,20.13
2022-12-28T17:37:03.064Z,19.93
2022-12-28T17:39:37.641Z,20.60
2022-12-28T17:42:10.394Z,21.83
2022-12-28T17:44:39.004Z,21.73
2022-12-28T17:47:07.330Z,22.10
2022-12-28T17:49:35.617Z,21.20
2022-12-28T17:52:04.144Z,21.33
2022-12-28T17:54:32.921Z,21.40
2022-12-28T17:57:01.329Z,23.23
2022-12-28T17:59:31.196Z,26.33
2022-12-28T18:02:01.628Z,27.93
2022-12-28T18:04:30.176Z,31.27
2022-12-28T18:06:59.112Z,32.97
2022-12-28T18:09:28.089Z,34.90
2022-12-28T18:11:56.893Z,39.43
2022-12-28T18:14:25.223Z,36.93
2022-12-28T18:16:55.218Z,29.23
2022-12-28T18:19:23.621Z,23.07
2022-12-28T18:21:51.933Z,19.63
2022-12-28T18:24:21.179Z,20.20
2022-12-28T18:26:49.977Z,20.70
2022-12-28T18:29:18.258Z,22.03
2022-12-28T18:31:46.702Z,21.57
2022-12-28T18:34:16.435Z,22.13
2022-12-28T18:36:44.757Z,22.27
2022-12-28T18:39:13.259Z,21.40
2022-12-28T18:41:41.563Z,20.67
2022-12-28T18:44:10.440Z,18.77
2022-12-28T18:46:38.876Z,19.60
2022-12-28T18:49:07.249Z,21.57
2022-12-28T18:51:37.224Z,22.27
2022-12-28T18:54:06.015Z,28.07
2022-12-28T18:56:34.295Z,22.67
2022-12-28T18:59:02.610Z,21.23
2022-12-28T19:04:19.662Z,17.47
2022-12-28T19:06:49.527Z,17.90
2022-12-28T19:09:18.331Z,18.77
2022-12-28T19:11:46.611Z,19.07
2022-12-28T19:14:16.948Z,20.27
2022-12-28T19:16:45.391Z,19.00
2022-12-28T19:19:13.748Z,17.03
2022-12-28T19:21:43.223Z,14.70
2022-12-28T19:24:15.523Z,21.83
2022-12-28T19:26:44.381Z,29.53
2022-12-28T19:29:13.177Z,24.77
2022-12-28T19:31:41.470Z,22.23
2022-12-28T19:34:09.977Z,26.00
2022-12-28T19:36:38.338Z,25.07
2022-12-28T19:39:06.879Z,22.83
2022-12-28T19:41:36.734Z,21.63
2022-12-28T19:44:05.387Z,19.73
2022-12-28T19:46:33.934Z,18.63
2022-12-28T19:49:04.110Z,17.43
2022-12-28T19:51:33.371Z,14.20
2022-12-28T19:54:01.770Z,14.10
2022-12-28T19:56:30.262Z,13.30
2022-12-28T19:59:05.909Z,12.20
2022-12-28T20:01:36.050Z,13.27
2022-12-28T20:04:12.372Z,16.30
2022-12-28T20:06:43.377Z,21.13
2022-12-28T20:09:13.007Z,27.17
2022-12-28T20:11:41.893Z,32.83
2022-12-28T20:14:14.174Z,33.93
2022-12-28T20:16:42.896Z,32.80
2022-12-28T20:19:12.286Z,31.23
2022-12-28T20:21:42.565Z,30.37
2022-12-28T20:24:13.307Z,35.17
2022-12-28T20:26:41.643Z,36.50
2022-12-28T20:29:11.286Z,33.77
2022-12-28T20:31:39.614Z,23.37
2022-12-28T20:34:07.861Z,17.20
2022-12-28T20:36:36.167Z,13.30
2022-12-28T20:39:05.030Z,11.77
2022-12-28T20:41:51.582Z,10.43
2022-12-28T20:44:25.895Z,9.43
2022-12-28T20:46:54.555Z,9.47
2022-12-28T20:49:23.632Z,10.67
2022-12-28T20:51:55.092Z,11.73
2022-12-28T20:54:23.757Z,11.70
2022-12-28T20:56:55.252Z,12.53
2022-12-28T20:59:26.763Z,14.17
2022-12-28T21:01:55.327Z,15.63
2022-12-28T21:04:25.124Z,14.57
2022-12-28T21:06:53.965Z,14.37
2022-12-28T21:09:22.514Z,15.07
2022-12-28T21:11:50.827Z,14.63
2022-12-28T21:14:19.309Z,12.40
2022-12-28T21:16:49.518Z,11.03
2022-12-28T21:19:17.976Z,10.60
2022-12-28T21:21:48.441Z,10.00
2022-12-28T21:24:16.747Z,10.10
2022-12-28T21:26:45.305Z,14.10
2022-12-28T21:29:13.594Z,18.10
2022-12-28T21:31:41.939Z,17.50
2022-12-28T21:34:11.677Z,15.70
2022-12-28T21:36:39.945Z,15.90
2022-12-28T21:39:08.287Z,15.83
2022-12-28T21:41:50.509Z,14.10
2022-12-28T21:44:20.814Z,11.37
2022-12-28T21:46:51.995Z,10.20
2022-12-28T21:49:22.121Z,9.73
2022-12-28T21:51:50.472Z,10.80
2022-12-28T21:54:20.205Z,15.90
2022-12-28T21:56:52.079Z,16.83
2022-12-28T21:59:21.142Z,14.47
2022-12-28T22:02:06.200Z,12.73
2022-12-28T22:04:58.494Z,11.17
2022-12-28T22:07:30.539Z,11.40
2022-12-28T22:10:16.464Z,8.70
2022-12-28T22:12:44.813Z,8.07
2022-12-28T22:15:33.025Z,8.37
2022-12-28T22:18:03.434Z,8.70
2022-12-28T22:20:34.985Z,7.93
2022-12-28T22:23:03.521Z,8.57
2022-12-28T22:25:32.245Z,7.43
2022-12-28T22:28:01.662Z,7.17
2022-12-28T22:30:30.259Z,7.70
2022-12-28T22:32:58.738Z,7.20
2022-12-28T22:35:27.364Z,7.93
2022-12-28T22:37:57.019Z,7.13
2022-12-28T22:40:25.748Z,6.60
2022-12-28T22:42:54.351Z,6.77
2022-12-28T22:45:24.367Z,6.47
2022-12-28T22:47:55.345Z,6.40
2022-12-28T22:50:23.531Z,6.53
2022-12-28T22:52:51.835Z,6.97
2022-12-28T22:55:21.625Z,7.23
2022-12-28T22:57:49.916Z,6.73
2022-12-28T23:00:18.794Z,6.07
2022-12-28T23:02:47.350Z,6.77
2022-12-28T23:05:15.856Z,6.73
2022-12-28T23:07:44.161Z,5.73
2022-12-28T23:10:12.522Z,6.23
2022-12-28T23:12:42.226Z,6.43
2022-12-28T23:15:19.787Z,5.87
2022-12-28T23:17:49.391Z,6.17
2022-12-28T23:20:36.156Z,5.97
2022-12-28T23:23:22.168Z,6.20
2022-12-28T23:26:08.237Z,6.40
2022-12-28T23:28:37.930Z,6.33
2022-12-28T23:31:06.529Z,6.87
2022-12-28T23:33:36.742Z,6.50
2022-12-28T23:36:05.781Z,6.23
2022-12-28T23:38:34.424Z,6.23
2022-12-28T23:41:24.744Z,5.97
2022-12-28T23:43:54.636Z,7.40
2022-12-28T23:46:22.959Z,6.70
2022-12-28T23:48:51.357Z,13.83
2022-12-28T23:51:19.706Z,27.77
2022-12-28T23:53:48.079Z,29.13
2022-12-28T23:56:16.348Z,22.13
2022-12-28T23:58:44.649Z,15.97
